Terminal Aerodrome Forecast
Issued by NWS

Home | Current Version | Previous Version | Text Only | Print | Product List | Glossary On
Versions: 1 2 3 4 5 6 7 8 9 10 11 12 13 14 15 16 17 18 19 20 21 22 23
000
FTUS45 KBYZ 161720
TAFLVM
TAF
KLVM 161720Z 1618/1718 VRB05KT P6SM FEW100 SCT250
     FM162000 24012KT P6SM SCT100 BKN250
     FM170400 22008KT P6SM SCT100 SCT250=

USA.gov is the U.S. government's official web portal to all federal, state and local government web resources and services.